Time;durP1;ratioP1;P1;durP2;ratioP2;P2;SDS_P1;SDS_P2;PMS_P1;PMS_P2;Temp;Humidity;BMP_temperature;BMP_pressure;BME280_temperature;BME280_humidity;BME280_pressure;Samples;Min_cycle;Max_cycle;Signal;HPM_P1;HPM_P2
2021/05/11 00:00:31;;;;;;;7.05;3.53;;;20.00;57.30;;;;;;5054842;28;20171;-71
2021/05/11 00:02:57;;;;;;;6.60;3.40;;;20.00;57.30;;;;;;5055601;28;20558;-70
2021/05/11 00:05:26;;;;;;;4.55;2.90;;;20.00;57.20;;;;;;5055688;28;20262;-70
2021/05/11 00:07:52;;;;;;;6.25;3.35;;;20.00;57.20;;;;;;5055079;28;20214;-70
2021/05/11 00:10:17;;;;;;;5.30;3.42;;;20.00;57.90;;;;;;5055654;28;20199;-72
2021/05/11 00:12:43;;;;;;;4.70;3.00;;;20.00;57.20;;;;;;5055404;28;20179;-72
2021/05/11 00:15:08;;;;;;;6.10;3.33;;;20.00;57.30;;;;;;5054983;28;20175;-71
2021/05/11 00:17:34;;;;;;;4.22;3.00;;;20.00;57.20;;;;;;5055229;28;20183;-71
2021/05/11 00:20:00;;;;;;;4.63;2.92;;;20.00;57.30;;;;;;5055511;28;20175;-71
2021/05/11 00:22:26;;;;;;;5.75;2.58;;;20.00;57.20;;;;;;5054538;28;20214;-72
2021/05/11 00:24:51;;;;;;;4.90;3.25;;;20.00;57.20;;;;;;5055094;28;20226;-72
2021/05/11 00:27:16;;;;;;;4.85;2.85;;;20.00;57.20;;;;;;5055381;28;20316;-72
2021/05/11 00:29:42;;;;;;;6.68;3.20;;;20.00;57.20;;;;;;5054231;28;20244;-72
2021/05/11 00:32:07;;;;;;;5.10;3.22;;;20.00;57.20;;;;;;5054556;28;20179;-72
2021/05/11 00:34:33;;;;;;;4.03;3.15;;;19.90;57.20;;;;;;5054856;28;20167;-72
2021/05/11 00:36:58;;;;;;;4.55;3.17;;;20.00;57.20;;;;;;5054212;28;20174;-72
2021/05/11 00:39:24;;;;;;;5.22;3.22;;;19.90;57.20;;;;;;5055029;28;20179;-72
2021/05/11 00:41:49;;;;;;;4.55;3.20;;;19.90;57.10;;;;;;5054857;28;20265;-72
2021/05/11 00:44:19;;;;;;;5.20;2.95;;;19.90;57.10;;;;;;5054466;28;20273;-71
2021/05/11 00:46:53;;;;;;;5.18;2.95;;;19.90;57.10;;;;;;5054495;28;20183;-71
2021/05/11 00:49:19;;;;;;;3.25;2.50;;;19.90;57.10;;;;;;5054210;28;20179;-72
2021/05/11 00:51:44;;;;;;;3.53;2.80;;;19.90;57.10;;;;;;5054652;28;20305;-71
2021/05/11 00:54:10;;;;;;;4.35;2.95;;;19.90;57.10;;;;;;5020832;28;20633;-73
2021/05/11 00:56:35;;;;;;;4.82;2.67;;;19.90;57.10;;;;;;5036028;28;20612;-72
2021/05/11 00:59:02;;;;;;;4.53;3.20;;;19.90;57.10;;;;;;5020558;28;20665;-72
2021/05/11 01:01:27;;;;;;;4.18;2.60;;;19.90;57.10;;;;;;5037235;28;20175;-70
2021/05/11 01:03:53;;;;;;;4.82;3.00;;;19.90;57.10;;;;;;5053477;28;20734;-70
2021/05/11 01:06:18;;;;;;;5.45;3.00;;;19.90;57.10;;;;;;5054756;28;20175;-71
2021/05/11 01:08:44;;;;;;;3.95;2.40;;;19.90;57.10;;;;;;5054106;28;20221;-72
2021/05/11 01:11:09;;;;;;;4.22;2.60;;;19.90;57.10;;;;;;5053672;28;20535;-72
2021/05/11 01:13:35;;;;;;;4.38;2.70;;;19.90;57.10;;;;;;5020148;28;20194;-72
2021/05/11 01:16:00;;;;;;;3.28;2.45;;;19.90;57.10;;;;;;5054505;28;20203;-71
2021/05/11 01:18:28;;;;;;;3.58;2.42;;;19.90;57.10;;;;;;5053690;28;20171;-71
2021/05/11 01:20:57;;;;;;;3.22;2.65;;;19.90;57.10;;;;;;5054073;28;20175;-71
2021/05/11 01:23:56;;;;;;;4.57;2.95;;;19.90;57.10;;;;;;5054092;28;20246;-73
2021/05/11 01:29:16;;;;;;;4.53;2.80;;;19.90;57.10;;;;;;5054217;28;20272;-72
2021/05/11 01:48:01;;;;;;;4.15;2.65;;;19.80;57.00;;;;;;5053668;28;20206;-70
2021/05/11 01:50:45;;;;;;;2.85;2.00;;;19.80;57.00;;;;;;5053970;28;20178;-72
2021/05/11 01:53:38;;;;;;;3.78;2.67;;;19.80;57.00;;;;;;5037359;28;20190;-73
2021/05/11 01:56:07;;;;;;;2.80;2.10;;;19.90;57.10;;;;;;5053488;28;20174;-72
2021/05/11 01:58:53;;;;;;;4.07;2.50;;;19.80;57.00;;;;;;5053305;28;20633;-72
2021/05/11 02:23:10;;;;;;;3.95;1.88;;;19.80;57.10;;;;;;5052952;28;20250;-72
2021/05/11 02:25:36;;;;;;;2.20;1.90;;;19.80;57.10;;;;;;5053015;28;20625;-72
2021/05/11 02:28:01;;;;;;;6.28;2.42;;;19.80;57.00;;;;;;5034463;28;20542;-72
2021/05/11 02:30:27;;;;;;;4.43;2.50;;;19.80;57.10;;;;;;5052961;28;20702;-73
2021/05/11 02:32:52;;;;;;;2.92;2.33;;;19.80;57.10;;;;;;5052493;28;20269;-72
2021/05/11 02:35:18;;;;;;;2.60;2.08;;;19.80;57.10;;;;;;5052146;28;20203;-72
2021/05/11 02:37:44;;;;;;;3.35;2.35;;;19.80;57.10;;;;;;5052433;28;20259;-72
2021/05/11 02:40:10;;;;;;;3.83;2.38;;;19.80;57.10;;;;;;5053360;28;20534;-72
2021/05/11 02:42:37;;;;;;;3.70;2.58;;;19.70;57.00;;;;;;5051378;28;20240;-72
2021/05/11 02:45:06;;;;;;;2.92;2.10;;;19.80;57.00;;;;;;5052793;28;20662;-71
2021/05/11 02:47:31;;;;;;;4.47;2.28;;;19.80;57.10;;;;;;5052616;28;20175;-71
2021/05/11 02:50:03;;;;;;;4.10;2.42;;;19.80;57.10;;;;;;5052112;28;20171;-71
2021/05/11 02:52:29;;;;;;;2.03;1.83;;;19.80;57.10;;;;;;5052678;28;20256;-72
2021/05/11 02:54:54;;;;;;;2.50;2.00;;;19.80;57.00;;;;;;5052205;28;20222;-72
2021/05/11 02:57:20;;;;;;;3.17;2.13;;;19.70;57.00;;;;;;5051920;28;20198;-72
2021/05/11 02:59:45;;;;;;;3.22;2.42;;;19.70;57.00;;;;;;5052136;28;20178;-72
2021/05/11 03:02:11;;;;;;;2.95;2.40;;;19.70;57.00;;;;;;5052585;28;20174;-70
2021/05/11 03:04:36;;;;;;;2.70;2.30;;;19.70;57.00;;;;;;5051416;28;20210;-70
2021/05/11 03:07:02;;;;;;;4.10;2.20;;;19.70;57.00;;;;;;5052493;28;20182;-70
2021/05/11 03:09:27;;;;;;;3.22;1.98;;;19.70;57.00;;;;;;5052708;28;20182;-71
2021/05/11 03:11:53;;;;;;;2.15;1.95;;;19.70;57.00;;;;;;5051508;28;20653;-72
2021/05/11 03:14:19;;;;;;;3.25;1.90;;;19.70;57.00;;;;;;5052563;28;20175;-71
2021/05/11 03:16:45;;;;;;;2.88;2.28;;;19.70;57.00;;;;;;5051417;28;20531;-71
2021/05/11 03:19:10;;;;;;;3.97;2.58;;;19.70;56.90;;;;;;5052654;28;20202;-70
2021/05/11 03:21:36;;;;;;;3.13;2.13;;;19.70;57.00;;;;;;5051965;28;20559;-71
2021/05/11 03:24:02;;;;;;;3.00;2.00;;;19.70;56.90;;;;;;5051355;28;20234;-72
2021/05/11 03:26:28;;;;;;;2.45;2.00;;;19.70;57.00;;;;;;5052500;28;20174;-71
2021/05/11 03:28:53;;;;;;;2.95;2.25;;;19.70;57.00;;;;;;5052083;28;20271;-72
2021/05/11 03:31:19;;;;;;;2.85;2.05;;;19.70;57.00;;;;;;5051814;28;20178;-71
2021/05/11 03:33:44;;;;;;;2.80;2.22;;;19.70;56.90;;;;;;5051747;28;20270;-72
2021/05/11 03:36:10;;;;;;;2.55;2.10;;;19.70;57.00;;;;;;5052420;28;20173;-72
2021/05/11 03:38:35;;;;;;;2.60;2.00;;;19.70;57.00;;;;;;5051501;28;20175;-72
2021/05/11 03:41:01;;;;;;;3.28;2.40;;;19.70;56.90;;;;;;5051981;28;20175;-71
2021/05/11 03:43:47;;;;;;;3.22;1.90;;;19.70;56.90;;;;;;5052239;28;20298;-71
2021/05/11 03:46:12;;;;;;;2.67;2.10;;;19.70;56.90;;;;;;5051332;28;20171;-71
2021/05/11 03:48:38;;;;;;;3.40;1.67;;;19.70;56.90;;;;;;5051849;28;20183;-72
2021/05/11 03:51:06;;;;;;;2.35;2.00;;;19.70;56.90;;;;;;5052220;28;20176;-72
2021/05/11 03:53:32;;;;;;;2.60;2.08;;;19.70;57.00;;;;;;5051278;28;20610;-73
2021/05/11 03:55:58;;;;;;;2.35;2.00;;;19.70;57.00;;;;;;5052033;28;20199;-72
2021/05/11 03:58:24;;;;;;;2.50;2.00;;;19.60;56.90;;;;;;5052260;28;20222;-72
2021/05/11 04:00:49;;;;;;;2.80;1.80;;;19.70;57.00;;;;;;5050889;28;20534;-72
2021/05/11 04:03:15;;;;;;;3.35;2.10;;;19.60;56.90;;;;;;5052139;28;20210;-72
2021/05/11 04:05:40;;;;;;;2.55;1.92;;;19.70;56.90;;;;;;5051725;28;20262;-71
2021/05/11 04:08:06;;;;;;;2.25;1.80;;;19.70;56.90;;;;;;5054713;28;20221;-72
2021/05/11 04:10:37;;;;;;;2.10;1.85;;;19.60;56.90;;;;;;5055546;28;20171;-72
2021/05/11 04:18:25;;;;;;;2.42;2.08;;;19.60;56.90;;;;;;5055622;28;20240;-71
2021/05/11 04:20:50;;;;;;;3.13;2.00;;;19.60;56.90;;;;;;5054363;28;20215;-72
2021/05/11 04:23:16;;;;;;;2.42;1.90;;;19.60;56.90;;;;;;5055119;28;20225;-72
2021/05/11 04:25:42;;;;;;;2.40;1.83;;;19.60;56.90;;;;;;5055264;28;20171;-72
2021/05/11 04:28:08;;;;;;;2.25;1.65;;;19.60;56.90;;;;;;5054663;28;20175;-72
2021/05/11 04:30:33;;;;;;;2.42;2.03;;;19.60;56.90;;;;;;5054976;28;20178;-72
2021/05/11 04:32:59;;;;;;;2.08;1.70;;;19.60;56.90;;;;;;5055317;28;20203;-71
2021/05/11 04:35:25;;;;;;;2.30;1.80;;;19.60;56.90;;;;;;5054590;28;20178;-72
2021/05/11 04:37:50;;;;;;;1.73;1.60;;;19.60;56.90;;;;;;5054664;28;20629;-72
2021/05/11 04:40:16;;;;;;;2.25;1.70;;;19.60;56.90;;;;;;5055108;28;20333;-72
2021/05/11 04:42:43;;;;;;;2.47;2.10;;;19.60;56.90;;;;;;5054024;28;20179;-71
2021/05/11 04:45:10;;;;;;;3.13;1.90;;;19.60;56.90;;;;;;5054880;28;20654;-71
2021/05/11 04:47:48;;;;;;;2.03;1.80;;;19.60;56.90;;;;;;5054895;28;20190;-71
2021/05/11 04:50:18;;;;;;;2.45;2.00;;;19.60;56.90;;;;;;5054311;28;20236;-72
2021/05/11 04:52:43;;;;;;;2.05;1.67;;;19.60;56.90;;;;;;5054527;28;20175;-71
2021/05/11 04:55:12;;;;;;;2.22;1.63;;;19.60;56.90;;;;;;5054174;28;20221;-72
2021/05/11 04:57:37;;;;;;;2.15;1.45;;;19.60;56.80;;;;;;5054647;28;20179;-72
2021/05/11 05:00:04;;;;;;;3.70;2.05;;;19.60;56.80;;;;;;5054783;28;21036;-71
2021/05/11 05:02:30;;;;;;;1.80;1.60;;;19.60;56.80;;;;;;5054065;28;20179;-71
2021/05/11 05:04:56;;;;;;;2.17;1.92;;;19.60;56.80;;;;;;5054469;28;20210;-70
2021/05/11 05:07:21;;;;;;;2.92;1.95;;;19.60;56.80;;;;;;5054527;28;20186;-71
2021/05/11 05:09:47;;;;;;;1.70;1.60;;;19.60;56.80;;;;;;5053326;28;20175;-72
2021/05/11 05:12:12;;;;;;;2.13;1.88;;;19.60;56.80;;;;;;5054892;28;20179;-72
2021/05/11 05:14:38;;;;;;;1.90;1.70;;;19.60;56.80;;;;;;5054397;28;20171;-72
2021/05/11 05:17:03;;;;;;;2.30;1.80;;;19.60;56.80;;;;;;5053514;28;20210;-71
2021/05/11 05:19:29;;;;;;;2.63;1.88;;;19.60;56.80;;;;;;5054576;28;20202;-71
2021/05/11 05:21:54;;;;;;;1.88;1.58;;;19.60;56.80;;;;;;5054053;28;20185;-71
2021/05/11 05:24:26;;;;;;;2.70;1.77;;;19.60;56.80;;;;;;5035731;28;20227;-72
2021/05/11 05:26:53;;;;;;;1.92;1.70;;;19.60;56.80;;;;;;5054121;28;20626;-72
2021/05/11 05:29:20;;;;;;;1.83;1.67;;;19.60;56.80;;;;;;5054413;28;20202;-72
2021/05/11 05:31:46;;;;;;;1.88;1.63;;;19.60;56.80;;;;;;5052875;28;20629;-71
2021/05/11 05:34:11;;;;;;;2.50;1.88;;;19.60;56.80;;;;;;5054072;28;20237;-72
2021/05/11 05:36:37;;;;;;;2.35;1.70;;;19.60;56.80;;;;;;5054022;28;20167;-72
2021/05/11 05:39:03;;;;;;;2.50;1.80;;;19.60;56.80;;;;;;5052964;28;20183;-71
2021/05/11 05:41:30;;;;;;;1.75;1.55;;;19.60;56.90;;;;;;5054167;28;20608;-70
2021/05/11 05:43:58;;;;;;;2.45;1.90;;;19.60;56.80;;;;;;5053736;28;20225;-70
2021/05/11 05:46:23;;;;;;;1.80;1.40;;;19.60;56.80;;;;;;5053423;28;20224;-70
2021/05/11 05:48:49;;;;;;;2.42;1.50;;;19.60;56.80;;;;;;5053354;28;20175;-70
2021/05/11 05:51:15;;;;;;;2.30;2.10;;;19.60;56.80;;;;;;5053848;28;20694;-71
2021/05/11 05:53:42;;;;;;;2.20;2.00;;;19.60;56.80;;;;;;5052827;28;20171;-72
2021/05/11 05:56:08;;;;;;;1.90;1.70;;;19.60;57.40;;;;;;5053763;28;20171;-72
2021/05/11 05:58:34;;;;;;;2.40;1.67;;;19.60;56.80;;;;;;5052866;28;20652;-71
2021/05/11 06:01:03;;;;;;;2.45;1.70;;;19.60;56.90;;;;;;5053696;28;20263;-70
2021/05/11 06:03:38;;;;;;;2.28;1.98;;;19.60;56.80;;;;;;5053437;28;20218;-70
2021/05/11 06:06:08;;;;;;;1.48;1.38;;;19.60;56.80;;;;;;5052842;28;20318;-70
2021/05/11 06:08:34;;;;;;;1.80;1.50;;;19.60;56.80;;;;;;5053372;28;20179;-74
2021/05/11 06:11:17;;;;;;;2.78;1.80;;;19.60;56.80;;;;;;5053538;28;20171;-72
2021/05/11 06:13:50;;;;;;;1.63;1.50;;;19.60;56.80;;;;;;5052279;28;20198;-72
2021/05/11 06:19:00;;;;;;;2.50;1.45;;;19.60;56.80;;;;;;5053113;28;20262;-70
2021/05/11 06:21:26;;;;;;;2.45;1.67;;;19.60;56.80;;;;;;5052620;28;20257;-73
2021/05/11 06:23:51;;;;;;;1.75;1.60;;;19.60;56.80;;;;;;5052437;28;20765;-73
2021/05/11 06:26:17;;;;;;;2.05;1.67;;;19.70;56.90;;;;;;5052915;28;20232;-68
2021/05/11 06:28:43;;;;;;;2.42;1.75;;;19.70;57.10;;;;;;5051844;28;20221;-70
2021/05/11 06:31:09;;;;;;;2.83;1.80;;;19.70;56.80;;;;;;5052730;28;20179;-70
2021/05/11 06:33:34;;;;;;;2.22;1.85;;;19.70;57.00;;;;;;5051413;28;20668;-70
2021/05/11 06:36:00;;;;;;;1.85;1.65;;;19.70;57.00;;;;;;5051941;28;20572;-71
2021/05/11 06:38:25;;;;;;;3.08;1.70;;;19.80;57.20;;;;;;5053022;28;20175;-70
2021/05/11 06:40:51;;;;;;;1.80;1.35;;;19.80;57.10;;;;;;5051857;28;20685;-74
2021/05/11 06:43:24;;;;;;;1.58;1.40;;;19.80;57.20;;;;;;5052776;28;20199;-72
2021/05/11 06:53:44;;;;;;;3.85;1.55;;;19.80;57.10;;;;;;5052318;28;20575;-71
2021/05/11 06:56:12;;;;;;;3.47;1.80;;;19.80;57.10;;;;;;5052056;28;20190;-71
2021/05/11 06:58:37;;;;;;;3.17;1.92;;;19.80;57.10;;;;;;5052600;28;20182;-71
2021/05/11 07:01:03;;;;;;;4.43;1.83;;;19.80;57.10;;;;;;5052825;28;20175;-71
2021/05/11 07:03:29;;;;;;;2.15;1.83;;;19.80;57.20;;;;;;5051460;28;20214;-70
2021/05/11 07:05:54;;;;;;;6.03;2.13;;;19.80;57.10;;;;;;5051983;28;20206;-68
2021/05/11 07:10:57;;;;;;;2.45;1.50;;;19.90;57.10;;;;;;5051675;28;20167;-69
2021/05/11 07:13:22;;;;;;;3.75;1.90;;;19.90;57.00;;;;;;5052532;28;20187;-70
2021/05/11 07:15:49;;;;;;;1.90;1.65;;;19.90;57.10;;;;;;5051720;28;20175;-70
2021/05/11 07:18:19;;;;;;;3.15;2.08;;;19.90;57.10;;;;;;5052761;28;20187;-70
2021/05/11 07:20:47;;;;;;;2.47;1.70;;;19.80;57.10;;;;;;5052241;28;20187;-70
2021/05/11 07:23:19;;;;;;;4.18;1.77;;;19.80;57.10;;;;;;5051266;28;20593;-70
2021/05/11 07:30:51;;;;;;;5.00;1.90;;;19.80;57.20;;;;;;5051227;28;20178;-70
2021/05/11 07:33:17;;;;;;;3.33;1.67;;;19.80;57.30;;;;;;5052262;28;20174;-71
2021/05/11 07:35:43;;;;;;;2.47;1.73;;;19.80;57.30;;;;;;5052317;28;20258;-70
2021/05/11 07:38:08;;;;;;;2.70;1.90;;;19.80;57.30;;;;;;5051928;28;20270;-70
2021/05/11 07:40:34;;;;;;;1.77;1.60;;;19.90;57.50;;;;;;5052125;28;20166;-71
2021/05/11 07:43:00;;;;;;;3.60;1.30;;;19.90;57.30;;;;;;5055438;28;20629;-70
2021/05/11 07:45:32;;;;;;;2.35;1.67;;;19.90;57.20;;;;;;5055641;28;20183;-70
2021/05/11 07:48:15;;;;;;;2.38;1.70;;;20.00;57.10;;;;;;5056006;28;20167;-69
2021/05/11 07:51:10;;;;;;;4.00;1.83;;;20.10;56.90;;;;;;5040701;28;20297;-70
2021/05/11 08:04:34;;;;;;;1.90;1.55;;;20.10;56.80;;;;;;5055666;28;20218;-69
2021/05/11 08:15:25;;;;;;;2.55;1.70;;;20.20;56.80;;;;;;5055649;28;20274;-69
2021/05/11 08:17:56;;;;;;;1.77;1.65;;;20.20;56.80;;;;;;5055351;28;20206;-70
2021/05/11 08:21:48;;;;;;;1.98;1.42;;;20.10;56.80;;;;;;5054912;28;20555;-70
2021/05/11 08:28:36;;;;;;;2.15;1.95;;;20.10;56.80;;;;;;5055191;28;20190;-69
2021/05/11 08:31:02;;;;;;;3.30;1.50;;;20.10;56.90;;;;;;5055719;28;20167;-69
2021/05/11 08:33:27;;;;;;;2.45;1.98;;;20.20;57.00;;;;;;5054550;28;20210;-70
2021/05/11 08:35:53;;;;;;;1.85;1.65;;;20.10;57.00;;;;;;5054917;28;20317;-70
2021/05/11 08:38:19;;;;;;;2.10;1.50;;;20.10;57.00;;;;;;5055412;28;20585;-70
2021/05/11 08:40:44;;;;;;;1.58;1.35;;;20.10;57.10;;;;;;5053923;28;20178;-70
2021/05/11 08:43:32;;;;;;;1.30;1.20;;;20.10;57.10;;;;;;5037373;28;20199;-70
2021/05/11 08:46:03;;;;;;;2.25;1.70;;;20.10;57.10;;;;;;5055075;28;20652;-70
2021/05/11 08:48:28;;;;;;;1.80;1.40;;;20.10;57.20;;;;;;5054252;28;20549;-69
2021/05/11 08:51:01;;;;;;;2.22;1.52;;;20.10;57.20;;;;;;5037161;28;20182;-70
2021/05/11 09:04:48;;;;;;;1.85;1.70;;;20.00;57.30;;;;;;5054568;28;20687;-69
2021/05/11 09:07:40;;;;;;;3.38;1.70;;;20.00;57.30;;;;;;5054510;28;20214;-69
2021/05/11 09:57:08;;;;;;;2.47;1.63;;;20.10;58.70;;;;;;5053786;28;20287;-74
2021/05/11 10:41:33;;;;;;;2.08;1.55;;;20.90;56.60;;;;;;5052324;28;20189;-71
2021/05/11 10:45:07;;;;;;;3.03;1.65;;;20.90;56.70;;;;;;5052839;28;20214;-66
2021/05/11 10:47:03;;;;;;;4.18;1.63;;;20.90;56.70;;;;;;5034246;28;20187;-67
2021/05/11 10:49:37;;;;;;;2.92;1.77;;;21.00;56.60;;;;;;5052698;28;20210;-67
2021/05/11 10:54:48;;;;;;;1.67;1.40;;;21.00;56.60;;;;;;5051926;28;20227;-67
2021/05/11 10:57:32;;;;;;;2.58;1.20;;;20.90;56.70;;;;;;5052653;28;20210;-68
2021/05/11 11:00:13;;;;;;;4.20;2.20;;;20.90;56.80;;;;;;5053164;28;20189;-67
2021/05/11 11:02:43;;;;;;;2.80;1.48;;;20.80;57.00;;;;;;5051918;28;20221;-66
2021/05/11 11:05:09;;;;;;;1.58;1.48;;;20.80;57.20;;;;;;5035610;28;20240;-66
2021/05/11 11:07:36;;;;;;;3.33;1.50;;;20.80;57.30;;;;;;5052763;28;20175;-66
2021/05/11 11:10:04;;;;;;;2.00;1.17;;;20.70;57.40;;;;;;5052192;28;20197;-67
2021/05/11 11:12:37;;;;;;;2.60;1.63;;;20.70;57.50;;;;;;5052712;28;20640;-64
2021/05/11 11:15:13;;;;;;;3.03;1.35;;;20.60;57.60;;;;;;5052937;28;20183;-64
2021/05/11 11:17:43;;;;;;;4.25;1.60;;;20.60;57.70;;;;;;5042642;28;20174;-65
2021/05/11 11:20:11;;;;;;;2.88;1.55;;;20.60;57.70;;;;;;5059384;28;20254;-65
2021/05/11 11:25:25;;;;;;;3.13;1.75;;;20.50;57.70;;;;;;5059673;28;20201;-65
2021/05/11 11:27:50;;;;;;;4.45;1.63;;;20.50;57.70;;;;;;5058934;28;20233;-64
2021/05/11 11:30:17;;;;;;;2.72;1.50;;;20.40;57.70;;;;;;5058441;28;20182;-64
2021/05/11 11:32:42;;;;;;;2.72;1.42;;;20.40;57.80;;;;;;5058740;28;20206;-65
2021/05/11 11:35:09;;;;;;;2.70;1.30;;;20.40;57.90;;;;;;5059245;28;20214;-64
2021/05/11 11:37:34;;;;;;;2.17;1.23;;;20.30;57.80;;;;;;5058581;28;20541;-65
2021/05/11 11:40:05;;;;;;;3.65;1.50;;;20.30;57.80;;;;;;5059651;28;20720;-65
2021/05/11 11:42:50;;;;;;;1.40;1.30;;;20.30;57.80;;;;;;5059577;28;20199;-65
2021/05/11 11:45:26;;;;;;;1.83;1.48;;;20.30;57.80;;;;;;5058624;28;20219;-65
2021/05/11 11:47:55;;;;;;;1.77;1.50;;;20.30;57.80;;;;;;5059494;28;20194;-65
2021/05/11 11:50:21;;;;;;;1.52;1.33;;;20.30;57.90;;;;;;5058742;28;20185;-65
2021/05/11 11:53:06;;;;;;;2.30;1.40;;;20.20;57.80;;;;;;5059538;28;20250;-68
2021/05/11 11:58:00;;;;;;;2.60;1.38;;;20.20;57.90;;;;;;5040604;28;20171;-71
2021/05/11 12:00:29;;;;;;;2.60;1.40;;;20.20;58.00;;;;;;5041462;28;20183;-70
2021/05/11 12:03:11;;;;;;;3.22;1.33;;;20.20;58.10;;;;;;5059329;28;20171;-68
2021/05/11 12:05:39;;;;;;;2.55;1.40;;;20.20;58.40;;;;;;5058328;28;20187;-69
2021/05/11 12:10:44;;;;;;;3.20;1.60;;;20.20;58.60;;;;;;5059018;28;20178;-69
2021/05/11 12:13:10;;;;;;;4.93;1.40;;;20.30;58.70;;;;;;5058641;28;20179;-68
2021/05/11 12:15:36;;;;;;;3.17;1.25;;;20.20;58.70;;;;;;5059298;28;20309;-70
2021/05/11 12:18:06;;;;;;;2.38;1.40;;;20.30;58.80;;;;;;5059545;28;20175;-72
2021/05/11 12:20:31;;;;;;;1.60;1.40;;;20.30;58.80;;;;;;5058977;28;20179;-72
2021/05/11 12:23:03;;;;;;;1.52;1.42;;;20.30;58.80;;;;;;5058936;28;20219;-72
2021/05/11 12:25:29;;;;;;;2.55;1.50;;;20.30;58.90;;;;;;5058745;28;20629;-71
2021/05/11 12:27:56;;;;;;;2.15;1.40;;;20.30;58.90;;;;;;5056258;28;20178;-69
2021/05/11 12:30:41;;;;;;;3.10;1.35;;;20.30;58.90;;;;;;5054346;28;20668;-68
2021/05/11 12:33:11;;;;;;;2.83;1.33;;;20.30;58.90;;;;;;5039282;28;20178;-68
2021/05/11 12:35:41;;;;;;;2.50;1.40;;;20.30;58.80;;;;;;5055411;28;20213;-70
2021/05/11 12:38:15;;;;;;;2.63;1.30;;;20.30;58.80;;;;;;5055478;28;20200;-69
2021/05/11 12:41:13;;;;;;;2.45;1.45;;;20.30;58.70;;;;;;5053796;28;20194;-70
2021/05/11 12:43:51;;;;;;;3.83;1.60;;;20.30;58.70;;;;;;5054245;28;20677;-69
2021/05/11 12:46:23;;;;;;;3.60;1.40;;;20.30;58.60;;;;;;5055463;28;20574;-69
2021/05/11 12:48:55;;;;;;;3.78;1.52;;;20.30;58.60;;;;;;5055054;28;20171;-69
2021/05/11 12:51:33;;;;;;;1.90;1.50;;;20.30;58.50;;;;;;5055323;28;20179;-69
2021/05/11 12:54:01;;;;;;;3.42;1.50;;;20.30;58.40;;;;;;5054624;28;20706;-70
2021/05/11 12:59:13;;;;;;;1.60;1.40;;;20.30;58.30;;;;;;5039096;28;20175;-69
2021/05/11 13:26:43;;;;;;;1.92;1.35;;;20.30;58.20;;;;;;4993099;28;20176;-70
2021/05/11 13:30:21;;;;;;;2.10;1.90;;;20.30;58.20;;;;;;5030591;28;20195;-68
2021/05/11 13:32:07;;;;;;;2.58;0.98;;;20.30;58.20;;;;;;5036911;28;20183;-69
2021/05/11 13:34:34;;;;;;;2.17;1.40;;;20.30;58.20;;;;;;5054075;28;20183;-70
2021/05/11 13:37:00;;;;;;;6.13;1.75;;;20.30;58.10;;;;;;5053350;28;20167;-69
2021/05/11 13:39:25;;;;;;;2.17;1.17;;;20.30;58.10;;;;;;5053174;28;20194;-70
2021/05/11 13:41:51;;;;;;;1.60;1.30;;;20.30;58.10;;;;;;5053708;28;20167;-69
2021/05/11 13:44:16;;;;;;;1.88;1.30;;;20.30;58.10;;;;;;5053483;28;20218;-69
2021/05/11 13:46:42;;;;;;;1.88;1.38;;;20.30;58.00;;;;;;5053800;28;20167;-69
2021/05/11 13:49:07;;;;;;;2.88;1.33;;;20.30;58.00;;;;;;5053923;28;20222;-69
2021/05/11 13:51:33;;;;;;;1.33;1.00;;;20.30;58.00;;;;;;5052938;28;20182;-69
2021/05/11 13:54:02;;;;;;;1.52;1.40;;;20.30;58.00;;;;;;5053711;28;20547;-69
2021/05/11 13:56:52;;;;;;;1.48;1.23;;;20.30;58.00;;;;;;5053685;28;20178;-70
2021/05/11 14:04:30;;;;;;;3.95;2.13;;;20.20;58.00;;;;;;5052762;28;20555;-69
2021/05/11 14:06:56;;;;;;;2.45;1.45;;;20.30;58.10;;;;;;5053250;28;20179;-70
2021/05/11 14:09:21;;;;;;;1.30;1.20;;;20.20;58.00;;;;;;5053429;28;20225;-69
2021/05/11 14:11:47;;;;;;;1.25;1.15;;;20.20;58.00;;;;;;5052546;28;20621;-69
2021/05/11 14:14:13;;;;;;;1.83;1.00;;;20.20;58.10;;;;;;5053441;28;20317;-70
2021/05/11 14:16:38;;;;;;;1.40;1.30;;;20.20;58.10;;;;;;5053458;28;20186;-69
2021/05/11 14:19:04;;;;;;;1.90;1.30;;;20.20;58.10;;;;;;5052560;28;20258;-70
2021/05/11 14:21:30;;;;;;;2.55;1.58;;;20.20;58.10;;;;;;5053489;28;20217;-70
2021/05/11 14:23:56;;;;;;;2.72;1.08;;;20.20;58.10;;;;;;5052675;28;20230;-69
2021/05/11 14:26:25;;;;;;;1.55;1.40;;;20.20;58.10;;;;;;5052672;28;20186;-68
2021/05/11 14:28:51;;;;;;;1.95;1.50;;;20.20;58.10;;;;;;5052906;28;20179;-68
2021/05/11 14:31:17;;;;;;;1.67;1.42;;;20.20;58.10;;;;;;5053134;28;20193;-68
2021/05/11 14:33:42;;;;;;;1.88;1.30;;;20.10;58.00;;;;;;5052278;28;20194;-70
2021/05/11 14:36:08;;;;;;;1.30;1.20;;;20.10;58.00;;;;;;5052941;28;20171;-69
2021/05/11 14:38:35;;;;;;;1.30;1.20;;;20.10;58.00;;;;;;5052514;28;20175;-69
2021/05/11 14:41:03;;;;;;;1.92;1.70;;;20.10;58.00;;;;;;5052037;28;20517;-70
2021/05/11 14:43:32;;;;;;;2.17;1.45;;;20.10;58.00;;;;;;5052802;28;20207;-69
2021/05/11 14:46:02;;;;;;;1.27;1.08;;;20.10;57.90;;;;;;5052645;28;20519;-70
2021/05/11 14:48:29;;;;;;;1.40;1.30;;;20.10;58.00;;;;;;5052996;28;20253;-69
2021/05/11 14:50:55;;;;;;;1.42;1.33;;;20.10;57.90;;;;;;5052379;28;20308;-70
2021/05/11 14:53:20;;;;;;;1.60;1.40;;;20.10;57.90;;;;;;5052216;28;21058;-69
2021/05/11 14:55:46;;;;;;;1.52;1.30;;;20.10;57.90;;;;;;5052136;28;20186;-69
2021/05/11 14:58:11;;;;;;;3.42;1.58;;;20.10;57.90;;;;;;5052902;28;20175;-69
2021/05/11 15:00:37;;;;;;;1.70;1.15;;;20.10;57.90;;;;;;5052052;28;20178;-70
2021/05/11 15:03:02;;;;;;;1.38;1.10;;;20.10;57.90;;;;;;5052564;28;20167;-70
2021/05/11 15:05:28;;;;;;;2.20;1.30;;;20.10;57.90;;;;;;5052512;28;20661;-69
2021/05/11 15:07:54;;;;;;;1.70;1.33;;;20.10;57.90;;;;;;5051535;28;20523;-70
2021/05/11 15:10:19;;;;;;;1.00;1.00;;;20.10;57.90;;;;;;5052672;28;20194;-68
2021/05/11 15:12:45;;;;;;;1.40;1.30;;;20.10;57.90;;;;;;5052122;28;20179;-69
2021/05/11 15:15:14;;;;;;;1.10;1.10;;;20.10;57.90;;;;;;5052110;28;20649;-69
2021/05/11 15:20:12;;;;;;;2.40;1.77;;;20.10;57.90;;;;;;5052308;28;20164;-69
2021/05/11 15:22:37;;;;;;;1.80;1.50;;;20.10;57.90;;;;;;5051593;28;20179;-68
2021/05/11 15:25:04;;;;;;;1.73;1.30;;;20.10;57.90;;;;;;5052280;28;20578;-69
2021/05/11 15:27:30;;;;;;;1.77;1.60;;;20.10;57.80;;;;;;5052832;28;20180;-68
2021/05/11 15:29:55;;;;;;;2.15;1.58;;;20.10;57.80;;;;;;5051521;28;20186;-69
2021/05/11 15:32:38;;;;;;;1.55;1.30;;;20.10;57.80;;;;;;5052516;28;20171;-69
2021/05/11 15:35:04;;;;;;;1.58;1.40;;;20.10;57.80;;;;;;5052586;28;20179;-69
2021/05/11 15:37:30;;;;;;;1.50;1.40;;;20.10;57.70;;;;;;5051937;28;20210;-69
2021/05/11 15:39:55;;;;;;;1.70;1.48;;;20.10;57.70;;;;;;5052320;28;20649;-70
2021/05/11 15:42:21;;;;;;;1.65;1.45;;;20.10;57.60;;;;;;5051695;28;20217;-68
2021/05/11 15:44:46;;;;;;;1.50;1.40;;;20.10;57.70;;;;;;5034068;28;20203;-66
2021/05/11 15:47:12;;;;;;;1.40;1.30;;;20.10;57.60;;;;;;5034470;28;20182;-66
2021/05/11 15:49:42;;;;;;;2.80;1.38;;;20.10;57.80;;;;;;5051125;28;20175;-66
2021/05/11 15:52:08;;;;;;;2.30;1.42;;;20.10;57.70;;;;;;5052443;28;20199;-66
2021/05/11 15:54:33;;;;;;;1.77;1.67;;;20.20;57.90;;;;;;5052380;28;20547;-66
2021/05/11 15:56:59;;;;;;;2.03;1.60;;;20.20;57.80;;;;;;5051447;28;20270;-66
2021/05/11 15:59:27;;;;;;;1.98;1.77;;;20.20;57.80;;;;;;5052326;28;20183;-66
2021/05/11 16:01:53;;;;;;;2.35;1.60;;;20.20;57.80;;;;;;5051781;28;20186;-68
2021/05/11 16:04:18;;;;;;;1.48;1.38;;;20.20;57.90;;;;;;5056021;28;20206;-72
2021/05/11 16:06:44;;;;;;;2.78;1.67;;;20.20;58.00;;;;;;5056495;28;20179;-72
2021/05/11 16:09:09;;;;;;;1.67;1.58;;;20.10;57.90;;;;;;5056103;28;20171;-71
2021/05/11 16:11:34;;;;;;;2.78;1.90;;;20.10;57.90;;;;;;5055545;28;20175;-71
2021/05/11 16:14:00;;;;;;;1.80;1.70;;;20.10;58.00;;;;;;5055905;28;20211;-71
2021/05/11 16:16:26;;;;;;;2.17;1.60;;;20.10;58.20;;;;;;5055672;28;20175;-70
2021/05/11 16:18:51;;;;;;;2.90;1.90;;;20.10;58.50;;;;;;5054753;28;20190;-70
2021/05/11 16:21:17;;;;;;;3.35;2.35;;;20.10;58.80;;;;;;5055594;28;20167;-71
2021/05/11 16:23:42;;;;;;;3.22;2.58;;;20.10;59.10;;;;;;5055378;28;20238;-70
2021/05/11 16:26:08;;;;;;;2.83;2.58;;;20.10;59.10;;;;;;5055330;28;20180;-68
2021/05/11 16:28:33;;;;;;;3.60;3.22;;;20.10;59.30;;;;;;5055842;28;20637;-69
2021/05/11 16:30:59;;;;;;;3.60;2.88;;;20.10;59.50;;;;;;5056396;28;20185;-69
2021/05/11 16:33:25;;;;;;;3.45;2.92;;;20.10;59.50;;;;;;5055330;28;20175;-70
2021/05/11 16:35:50;;;;;;;5.40;3.92;;;20.10;59.70;;;;;;5055942;28;20309;-68
2021/05/11 16:38:19;;;;;;;4.13;3.00;;;20.10;59.90;;;;;;5057051;28;20187;-67
2021/05/11 16:40:44;;;;;;;6.03;3.38;;;20.10;59.80;;;;;;5054594;28;20194;-67
2021/05/11 16:43:11;;;;;;;3.33;2.80;;;20.10;59.90;;;;;;5055942;28;20539;-67
2021/05/11 16:45:36;;;;;;;4.65;3.35;;;20.10;59.80;;;;;;5055076;28;20190;-67
2021/05/11 16:48:02;;;;;;;3.85;2.38;;;20.10;59.90;;;;;;5055980;28;20167;-67